sensor_id;sensor_type;location;lat;lon;timestamp;P1;durP1;ratioP1;P2;durP2;ratioP2
41643;SDS011;44236;48.098;11.582;2023-04-16T00:01:32;1.15;;;0.57;;
41643;SDS011;44236;48.098;11.582;2023-04-16T00:03:58;0.95;;;0.50;;
41643;SDS011;44236;48.098;11.582;2023-04-16T00:06:24;2.58;;;0.50;;
41643;SDS011;44236;48.098;11.582;2023-04-16T00:08:49;2.17;;;0.50;;
41643;SDS011;44236;48.098;11.582;2023-04-16T00:11:15;0.90;;;0.50;;
41643;SDS011;44236;48.098;11.582;2023-04-16T00:13:41;0.75;;;0.60;;
41643;SDS011;44236;48.098;11.582;2023-04-16T00:16:07;1.85;;;0.70;;
41643;SDS011;44236;48.098;11.582;2023-04-16T00:18:33;1.30;;;0.50;;
41643;SDS011;44236;48.098;11.582;2023-04-16T00:20:58;0.82;;;0.50;;
41643;SDS011;44236;48.098;11.582;2023-04-16T00:23:24;0.52;;;0.52;;
41643;SDS011;44236;48.098;11.582;2023-04-16T00:25:50;1.40;;;0.70;;
41643;SDS011;44236;48.098;11.582;2023-04-16T00:28:16;1.08;;;0.52;;
41643;SDS011;44236;48.098;11.582;2023-04-16T00:30:41;1.42;;;0.60;;
41643;SDS011;44236;48.098;11.582;2023-04-16T00:33:07;0.82;;;0.45;;
41643;SDS011;44236;48.098;11.582;2023-04-16T00:35:33;1.42;;;0.60;;
41643;SDS011;44236;48.098;11.582;2023-04-16T00:37:58;0.88;;;0.60;;
41643;SDS011;44236;48.098;11.582;2023-04-16T00:40:27;0.60;;;0.50;;
41643;SDS011;44236;48.098;11.582;2023-04-16T00:42:53;0.45;;;0.40;;
41643;SDS011;44236;48.098;11.582;2023-04-16T00:45:19;1.33;;;0.50;;
41643;SDS011;44236;48.098;11.582;2023-04-16T00:47:45;0.90;;;0.47;;
41643;SDS011;44236;48.098;11.582;2023-04-16T00:50:11;0.50;;;0.50;;
41643;SDS011;44236;48.098;11.582;2023-04-16T00:52:37;0.95;;;0.60;;
41643;SDS011;44236;48.098;11.582;2023-04-16T00:55:04;4.28;;;0.63;;
41643;SDS011;44236;48.098;11.582;2023-04-16T00:57:31;1.35;;;0.57;;
41643;SDS011;44236;48.098;11.582;2023-04-16T00:59:57;0.50;;;0.50;;
41643;SDS011;44236;48.098;11.582;2023-04-16T01:02:22;0.95;;;0.68;;
41643;SDS011;44236;48.098;11.582;2023-04-16T01:04:49;0.32;;;0.32;;
41643;SDS011;44236;48.098;11.582;2023-04-16T01:07:15;0.65;;;0.40;;
41643;SDS011;44236;48.098;11.582;2023-04-16T01:09:41;0.93;;;0.50;;
41643;SDS011;44236;48.098;11.582;2023-04-16T01:12:06;0.43;;;0.30;;
41643;SDS011;44236;48.098;11.582;2023-04-16T01:14:32;0.38;;;0.30;;
41643;SDS011;44236;48.098;11.582;2023-04-16T01:17:00;1.08;;;0.52;;
41643;SDS011;44236;48.098;11.582;2023-04-16T01:19:27;1.38;;;0.52;;
41643;SDS011;44236;48.098;11.582;2023-04-16T01:21:55;1.17;;;0.65;;
41643;SDS011;44236;48.098;11.582;2023-04-16T01:24:21;2.08;;;0.57;;
41643;SDS011;44236;48.098;11.582;2023-04-16T01:26:46;0.40;;;0.35;;
41643;SDS011;44236;48.098;11.582;2023-04-16T01:29:12;0.90;;;0.50;;
41643;SDS011;44236;48.098;11.582;2023-04-16T01:31:38;1.70;;;0.60;;
41643;SDS011;44236;48.098;11.582;2023-04-16T01:34:03;1.33;;;0.57;;
41643;SDS011;44236;48.098;11.582;2023-04-16T01:36:29;1.05;;;0.52;;
41643;SDS011;44236;48.098;11.582;2023-04-16T01:38:55;2.60;;;0.60;;
41643;SDS011;44236;48.098;11.582;2023-04-16T01:41:20;1.00;;;0.63;;
41643;SDS011;44236;48.098;11.582;2023-04-16T01:43:46;0.73;;;0.43;;
41643;SDS011;44236;48.098;11.582;2023-04-16T01:46:20;0.40;;;0.30;;
41643;SDS011;44236;48.098;11.582;2023-04-16T01:48:51;1.45;;;0.57;;
41643;SDS011;44236;48.098;11.582;2023-04-16T01:51:18;0.40;;;0.40;;
41643;SDS011;44236;48.098;11.582;2023-04-16T01:53:44;0.80;;;0.60;;
41643;SDS011;44236;48.098;11.582;2023-04-16T01:56:10;1.10;;;0.50;;
41643;SDS011;44236;48.098;11.582;2023-04-16T01:58:35;1.83;;;0.60;;
41643;SDS011;44236;48.098;11.582;2023-04-16T02:01:03;0.50;;;0.30;;
41643;SDS011;44236;48.098;11.582;2023-04-16T02:03:29;1.10;;;0.50;;
41643;SDS011;44236;48.098;11.582;2023-04-16T02:05:56;0.30;;;0.30;;
41643;SDS011;44236;48.098;11.582;2023-04-16T02:08:21;0.47;;;0.38;;
41643;SDS011;44236;48.098;11.582;2023-04-16T02:10:48;1.02;;;0.60;;
41643;SDS011;44236;48.098;11.582;2023-04-16T02:13:17;0.40;;;0.40;;
41643;SDS011;44236;48.098;11.582;2023-04-16T02:15:49;0.90;;;0.50;;
41643;SDS011;44236;48.098;11.582;2023-04-16T02:18:15;0.68;;;0.40;;
41643;SDS011;44236;48.098;11.582;2023-04-16T02:20:41;0.68;;;0.55;;
41643;SDS011;44236;48.098;11.582;2023-04-16T02:23:08;0.75;;;0.60;;
41643;SDS011;44236;48.098;11.582;2023-04-16T02:25:37;0.77;;;0.60;;
41643;SDS011;44236;48.098;11.582;2023-04-16T02:28:05;0.75;;;0.40;;
41643;SDS011;44236;48.098;11.582;2023-04-16T02:30:35;0.47;;;0.43;;
41643;SDS011;44236;48.098;11.582;2023-04-16T02:33:02;1.02;;;0.50;;
41643;SDS011;44236;48.098;11.582;2023-04-16T02:35:30;0.40;;;0.40;;
41643;SDS011;44236;48.098;11.582;2023-04-16T02:37:56;0.63;;;0.40;;
41643;SDS011;44236;48.098;11.582;2023-04-16T02:40:22;0.63;;;0.43;;
41643;SDS011;44236;48.098;11.582;2023-04-16T02:42:48;1.20;;;0.50;;
41643;SDS011;44236;48.098;11.582;2023-04-16T02:45:14;0.40;;;0.40;;
41643;SDS011;44236;48.098;11.582;2023-04-16T02:47:40;0.70;;;0.40;;
41643;SDS011;44236;48.098;11.582;2023-04-16T02:50:05;0.30;;;0.30;;
41643;SDS011;44236;48.098;11.582;2023-04-16T02:52:32;0.47;;;0.40;;
41643;SDS011;44236;48.098;11.582;2023-04-16T02:54:57;0.30;;;0.30;;
41643;SDS011;44236;48.098;11.582;2023-04-16T02:57:23;1.08;;;0.50;;
41643;SDS011;44236;48.098;11.582;2023-04-16T02:59:49;0.30;;;0.30;;
41643;SDS011;44236;48.098;11.582;2023-04-16T03:02:15;0.68;;;0.50;;
41643;SDS011;44236;48.098;11.582;2023-04-16T03:04:41;0.47;;;0.40;;
41643;SDS011;44236;48.098;11.582;2023-04-16T03:07:06;2.40;;;0.68;;
41643;SDS011;44236;48.098;11.582;2023-04-16T03:09:33;0.55;;;0.45;;
41643;SDS011;44236;48.098;11.582;2023-04-16T03:11:59;0.43;;;0.40;;
41643;SDS011;44236;48.098;11.582;2023-04-16T03:14:26;0.75;;;0.40;;
41643;SDS011;44236;48.098;11.582;2023-04-16T03:16:52;1.48;;;0.85;;
41643;SDS011;44236;48.098;11.582;2023-04-16T03:19:17;0.40;;;0.38;;
41643;SDS011;44236;48.098;11.582;2023-04-16T03:21:43;0.40;;;0.30;;
41643;SDS011;44236;48.098;11.582;2023-04-16T03:24:09;0.47;;;0.43;;
41643;SDS011;44236;48.098;11.582;2023-04-16T03:26:35;1.70;;;0.70;;
41643;SDS011;44236;48.098;11.582;2023-04-16T03:29:01;0.40;;;0.35;;
41643;SDS011;44236;48.098;11.582;2023-04-16T03:31:27;0.40;;;0.40;;
41643;SDS011;44236;48.098;11.582;2023-04-16T03:33:52;0.55;;;0.50;;
41643;SDS011;44236;48.098;11.582;2023-04-16T03:36:18;1.30;;;0.60;;
41643;SDS011;44236;48.098;11.582;2023-04-16T03:38:43;0.40;;;0.40;;
41643;SDS011;44236;48.098;11.582;2023-04-16T03:41:09;0.93;;;0.60;;
41643;SDS011;44236;48.098;11.582;2023-04-16T03:43:35;0.68;;;0.63;;
41643;SDS011;44236;48.098;11.582;2023-04-16T03:46:00;0.65;;;0.60;;
41643;SDS011;44236;48.098;11.582;2023-04-16T03:48:26;1.30;;;0.50;;
41643;SDS011;44236;48.098;11.582;2023-04-16T03:50:52;2.47;;;0.52;;
41643;SDS011;44236;48.098;11.582;2023-04-16T03:53:17;0.73;;;0.50;;
41643;SDS011;44236;48.098;11.582;2023-04-16T03:55:43;0.70;;;0.50;;
41643;SDS011;44236;48.098;11.582;2023-04-16T03:58:08;0.43;;;0.38;;
41643;SDS011;44236;48.098;11.582;2023-04-16T04:00:34;0.93;;;0.40;;
41643;SDS011;44236;48.098;11.582;2023-04-16T04:03:00;0.30;;;0.30;;
41643;SDS011;44236;48.098;11.582;2023-04-16T04:05:25;2.88;;;0.60;;
41643;SDS011;44236;48.098;11.582;2023-04-16T04:07:51;1.13;;;0.50;;
41643;SDS011;44236;48.098;11.582;2023-04-16T04:10:17;0.45;;;0.38;;
41643;SDS011;44236;48.098;11.582;2023-04-16T04:12:42;0.43;;;0.43;;
41643;SDS011;44236;48.098;11.582;2023-04-16T04:15:08;3.90;;;0.68;;
41643;SDS011;44236;48.098;11.582;2023-04-16T04:17:34;0.60;;;0.50;;
41643;SDS011;44236;48.098;11.582;2023-04-16T04:19:59;1.30;;;0.40;;
41643;SDS011;44236;48.098;11.582;2023-04-16T04:22:25;0.30;;;0.30;;
41643;SDS011;44236;48.098;11.582;2023-04-16T04:24:51;0.65;;;0.50;;
41643;SDS011;44236;48.098;11.582;2023-04-16T04:27:16;0.65;;;0.50;;
41643;SDS011;44236;48.098;11.582;2023-04-16T04:29:42;0.30;;;0.30;;
41643;SDS011;44236;48.098;11.582;2023-04-16T04:32:07;0.63;;;0.50;;
41643;SDS011;44236;48.098;11.582;2023-04-16T04:34:33;5.45;;;1.33;;
41643;SDS011;44236;48.098;11.582;2023-04-16T04:36:58;0.57;;;0.40;;
41643;SDS011;44236;48.098;11.582;2023-04-16T04:39:24;0.50;;;0.50;;
41643;SDS011;44236;48.098;11.582;2023-04-16T04:41:50;0.50;;;0.30;;
41643;SDS011;44236;48.098;11.582;2023-04-16T04:44:15;0.30;;;0.30;;
41643;SDS011;44236;48.098;11.582;2023-04-16T04:46:41;0.22;;;0.22;;
41643;SDS011;44236;48.098;11.582;2023-04-16T04:49:06;0.95;;;0.45;;
41643;SDS011;44236;48.098;11.582;2023-04-16T04:51:32;1.25;;;0.40;;
41643;SDS011;44236;48.098;11.582;2023-04-16T04:53:58;0.68;;;0.40;;
41643;SDS011;44236;48.098;11.582;2023-04-16T04:56:23;0.40;;;0.38;;
41643;SDS011;44236;48.098;11.582;2023-04-16T04:58:49;0.25;;;0.25;;
41643;SDS011;44236;48.098;11.582;2023-04-16T05:01:15;0.47;;;0.47;;
41643;SDS011;44236;48.098;11.582;2023-04-16T05:03:41;0.38;;;0.35;;
41643;SDS011;44236;48.098;11.582;2023-04-16T05:06:07;0.80;;;0.63;;
41643;SDS011;44236;48.098;11.582;2023-04-16T05:08:32;0.30;;;0.30;;
41643;SDS011;44236;48.098;11.582;2023-04-16T05:10:58;0.30;;;0.30;;
41643;SDS011;44236;48.098;11.582;2023-04-16T05:13:23;0.75;;;0.30;;
41643;SDS011;44236;48.098;11.582;2023-04-16T05:15:49;0.35;;;0.28;;
41643;SDS011;44236;48.098;11.582;2023-04-16T05:18:14;0.28;;;0.28;;
41643;SDS011;44236;48.098;11.582;2023-04-16T05:20:40;0.80;;;0.63;;
41643;SDS011;44236;48.098;11.582;2023-04-16T05:23:06;0.20;;;0.20;;
41643;SDS011;44236;48.098;11.582;2023-04-16T05:25:31;1.20;;;0.40;;
41643;SDS011;44236;48.098;11.582;2023-04-16T05:27:57;1.60;;;0.40;;
41643;SDS011;44236;48.098;11.582;2023-04-16T05:30:22;1.20;;;0.38;;
41643;SDS011;44236;48.098;11.582;2023-04-16T05:32:48;0.20;;;0.20;;
41643;SDS011;44236;48.098;11.582;2023-04-16T05:35:14;2.25;;;0.50;;
41643;SDS011;44236;48.098;11.582;2023-04-16T05:37:39;0.45;;;0.30;;
41643;SDS011;44236;48.098;11.582;2023-04-16T05:40:05;0.63;;;0.38;;
41643;SDS011;44236;48.098;11.582;2023-04-16T05:42:31;0.32;;;0.30;;
41643;SDS011;44236;48.098;11.582;2023-04-16T05:44:57;1.67;;;0.30;;
41643;SDS011;44236;48.098;11.582;2023-04-16T05:47:23;0.60;;;0.25;;
41643;SDS011;44236;48.098;11.582;2023-04-16T05:49:48;0.63;;;0.40;;
41643;SDS011;44236;48.098;11.582;2023-04-16T05:52:14;0.30;;;0.30;;
41643;SDS011;44236;48.098;11.582;2023-04-16T05:54:40;2.40;;;0.25;;
41643;SDS011;44236;48.098;11.582;2023-04-16T05:57:05;0.50;;;0.50;;
41643;SDS011;44236;48.098;11.582;2023-04-16T05:59:31;1.45;;;0.30;;
41643;SDS011;44236;48.098;11.582;2023-04-16T06:01:56;0.55;;;0.50;;
41643;SDS011;44236;48.098;11.582;2023-04-16T06:04:22;1.85;;;0.90;;
41643;SDS011;44236;48.098;11.582;2023-04-16T06:06:48;1.65;;;0.85;;
41643;SDS011;44236;48.098;11.582;2023-04-16T06:09:13;2.10;;;1.10;;
41643;SDS011;44236;48.098;11.582;2023-04-16T06:11:39;2.83;;;0.93;;
41643;SDS011;44236;48.098;11.582;2023-04-16T06:14:04;0.98;;;0.68;;
41643;SDS011;44236;48.098;11.582;2023-04-16T06:16:30;0.73;;;0.60;;
41643;SDS011;44236;48.098;11.582;2023-04-16T06:18:56;0.63;;;0.50;;
41643;SDS011;44236;48.098;11.582;2023-04-16T06:21:21;2.17;;;0.57;;
41643;SDS011;44236;48.098;11.582;2023-04-16T06:23:47;0.70;;;0.45;;
41643;SDS011;44236;48.098;11.582;2023-04-16T06:26:13;0.82;;;0.55;;
41643;SDS011;44236;48.098;11.582;2023-04-16T06:28:38;3.03;;;1.13;;
41643;SDS011;44236;48.098;11.582;2023-04-16T06:31:04;0.47;;;0.30;;
41643;SDS011;44236;48.098;11.582;2023-04-16T06:33:30;0.40;;;0.40;;
41643;SDS011;44236;48.098;11.582;2023-04-16T06:35:55;6.00;;;1.00;;
41643;SDS011;44236;48.098;11.582;2023-04-16T06:38:21;4.85;;;1.65;;
41643;SDS011;44236;48.098;11.582;2023-04-16T06:40:47;5.65;;;1.48;;
41643;SDS011;44236;48.098;11.582;2023-04-16T06:43:13;1.23;;;0.57;;
41643;SDS011;44236;48.098;11.582;2023-04-16T06:45:39;5.32;;;1.80;;
41643;SDS011;44236;48.098;11.582;2023-04-16T06:48:05;5.28;;;1.23;;
41643;SDS011;44236;48.098;11.582;2023-04-16T06:50:31;7.43;;;1.40;;
41643;SDS011;44236;48.098;11.582;2023-04-16T06:52:56;3.70;;;1.10;;
41643;SDS011;44236;48.098;11.582;2023-04-16T06:55:22;5.68;;;1.85;;
41643;SDS011;44236;48.098;11.582;2023-04-16T06:57:50;5.50;;;1.02;;
41643;SDS011;44236;48.098;11.582;2023-04-16T07:00:16;5.65;;;1.25;;
41643;SDS011;44236;48.098;11.582;2023-04-16T07:02:42;3.85;;;0.90;;
41643;SDS011;44236;48.098;11.582;2023-04-16T07:05:07;6.95;;;1.33;;
41643;SDS011;44236;48.098;11.582;2023-04-16T07:07:33;7.43;;;1.73;;
41643;SDS011;44236;48.098;11.582;2023-04-16T07:09:59;4.95;;;1.23;;
41643;SDS011;44236;48.098;11.582;2023-04-16T07:12:24;5.22;;;1.40;;
41643;SDS011;44236;48.098;11.582;2023-04-16T07:14:51;12.93;;;1.92;;
41643;SDS011;44236;48.098;11.582;2023-04-16T07:17:17;5.53;;;1.25;;
41643;SDS011;44236;48.098;11.582;2023-04-16T07:19:42;7.70;;;1.65;;
41643;SDS011;44236;48.098;11.582;2023-04-16T07:22:08;8.07;;;1.73;;
41643;SDS011;44236;48.098;11.582;2023-04-16T07:24:34;2.17;;;0.82;;
41643;SDS011;44236;48.098;11.582;2023-04-16T07:27:00;6.57;;;1.23;;
41643;SDS011;44236;48.098;11.582;2023-04-16T07:29:25;5.10;;;1.20;;
41643;SDS011;44236;48.098;11.582;2023-04-16T07:31:51;4.95;;;1.65;;
41643;SDS011;44236;48.098;11.582;2023-04-16T07:34:16;14.27;;;1.58;;
41643;SDS011;44236;48.098;11.582;2023-04-16T07:36:42;9.68;;;1.95;;
41643;SDS011;44236;48.098;11.582;2023-04-16T07:39:08;6.78;;;1.85;;
41643;SDS011;44236;48.098;11.582;2023-04-16T07:41:34;10.15;;;1.60;;
41643;SDS011;44236;48.098;11.582;2023-04-16T07:44:01;7.35;;;1.85;;
41643;SDS011;44236;48.098;11.582;2023-04-16T07:46:27;11.30;;;1.95;;
41643;SDS011;44236;48.098;11.582;2023-04-16T07:48:52;8.55;;;1.50;;
41643;SDS011;44236;48.098;11.582;2023-04-16T07:51:18;3.65;;;0.93;;
41643;SDS011;44236;48.098;11.582;2023-04-16T07:53:44;5.30;;;1.52;;
41643;SDS011;44236;48.098;11.582;2023-04-16T07:56:10;5.43;;;1.52;;
41643;SDS011;44236;48.098;11.582;2023-04-16T07:58:35;6.85;;;1.30;;
41643;SDS011;44236;48.098;11.582;2023-04-16T08:01:01;3.60;;;1.23;;
41643;SDS011;44236;48.098;11.582;2023-04-16T08:03:27;9.05;;;1.45;;
41643;SDS011;44236;48.098;11.582;2023-04-16T08:05:52;6.50;;;1.48;;
41643;SDS011;44236;48.098;11.582;2023-04-16T08:08:18;6.93;;;1.35;;
41643;SDS011;44236;48.098;11.582;2023-04-16T08:10:43;5.18;;;1.10;;
41643;SDS011;44236;48.098;11.582;2023-04-16T08:13:09;5.35;;;0.90;;
41643;SDS011;44236;48.098;11.582;2023-04-16T08:15:35;6.78;;;1.05;;
41643;SDS011;44236;48.098;11.582;2023-04-16T08:18:00;4.82;;;1.10;;
41643;SDS011;44236;48.098;11.582;2023-04-16T08:20:26;4.57;;;1.15;;
41643;SDS011;44236;48.098;11.582;2023-04-16T08:22:52;3.17;;;1.13;;
41643;SDS011;44236;48.098;11.582;2023-04-16T08:25:18;12.43;;;1.10;;
41643;SDS011;44236;48.098;11.582;2023-04-16T08:27:44;10.50;;;1.20;;
41643;SDS011;44236;48.098;11.582;2023-04-16T08:30:10;4.72;;;0.90;;
41643;SDS011;44236;48.098;11.582;2023-04-16T08:32:36;4.03;;;0.90;;
41643;SDS011;44236;48.098;11.582;2023-04-16T08:35:02;4.03;;;0.75;;
41643;SDS011;44236;48.098;11.582;2023-04-16T08:37:27;3.63;;;0.88;;
41643;SDS011;44236;48.098;11.582;2023-04-16T08:39:53;2.75;;;0.50;;
41643;SDS011;44236;48.098;11.582;2023-04-16T08:42:30;10.18;;;1.60;;
41643;SDS011;44236;48.098;11.582;2023-04-16T08:45:07;13.32;;;1.13;;
41643;SDS011;44236;48.098;11.582;2023-04-16T08:47:38;28.88;;;1.50;;
41643;SDS011;44236;48.098;11.582;2023-04-16T08:50:05;3.22;;;1.00;;
41643;SDS011;44236;48.098;11.582;2023-04-16T08:52:32;8.52;;;1.63;;
41643;SDS011;44236;48.098;11.582;2023-04-16T08:55:15;6.65;;;1.73;;
41643;SDS011;44236;48.098;11.582;2023-04-16T08:58:12;7.88;;;1.00;;
41643;SDS011;44236;48.098;11.582;2023-04-16T09:00:39;9.95;;;1.05;;
41643;SDS011;44236;48.098;11.582;2023-04-16T09:03:05;4.70;;;1.08;;
41643;SDS011;44236;48.098;11.582;2023-04-16T09:05:32;6.63;;;1.85;;
41643;SDS011;44236;48.098;11.582;2023-04-16T09:07:58;15.40;;;3.63;;
41643;SDS011;44236;48.098;11.582;2023-04-16T09:10:25;29.25;;;3.92;;
41643;SDS011;44236;48.098;11.582;2023-04-16T09:12:54;31.40;;;4.95;;
41643;SDS011;44236;48.098;11.582;2023-04-16T09:15:20;21.30;;;4.13;;
41643;SDS011;44236;48.098;11.582;2023-04-16T09:17:47;30.00;;;5.78;;
41643;SDS011;44236;48.098;11.582;2023-04-16T09:20:13;24.40;;;4.93;;
41643;SDS011;44236;48.098;11.582;2023-04-16T09:22:39;21.58;;;4.63;;
41643;SDS011;44236;48.098;11.582;2023-04-16T09:25:05;28.42;;;4.93;;
41643;SDS011;44236;48.098;11.582;2023-04-16T09:27:32;26.67;;;6.57;;
41643;SDS011;44236;48.098;11.582;2023-04-16T09:29:59;23.90;;;4.90;;
41643;SDS011;44236;48.098;11.582;2023-04-16T09:32:25;23.73;;;5.07;;
41643;SDS011;44236;48.098;11.582;2023-04-16T09:37:25;17.65;;;5.35;;
41643;SDS011;44236;48.098;11.582;2023-04-16T09:42:24;18.55;;;3.67;;
41643;SDS011;44236;48.098;11.582;2023-04-16T09:44:57;17.13;;;3.35;;
41643;SDS011;44236;48.098;11.582;2023-04-16T09:47:42;15.38;;;2.70;;
41643;SDS011;44236;48.098;11.582;2023-04-16T09:50:09;12.85;;;2.58;;
41643;SDS011;44236;48.098;11.582;2023-04-16T09:52:42;9.82;;;2.22;;
41643;SDS011;44236;48.098;11.582;2023-04-16T09:55:09;14.45;;;2.83;;
41643;SDS011;44236;48.098;11.582;2023-04-16T09:57:36;11.55;;;1.92;;
41643;SDS011;44236;48.098;11.582;2023-04-16T10:00:03;11.48;;;2.45;;
41643;SDS011;44236;48.098;11.582;2023-04-16T10:02:30;8.65;;;1.98;;
41643;SDS011;44236;48.098;11.582;2023-04-16T10:04:58;6.18;;;1.55;;
41643;SDS011;44236;48.098;11.582;2023-04-16T10:07:27;7.95;;;2.10;;
41643;SDS011;44236;48.098;11.582;2023-04-16T10:09:53;9.82;;;1.45;;
41643;SDS011;44236;48.098;11.582;2023-04-16T10:12:19;8.15;;;1.50;;
41643;SDS011;44236;48.098;11.582;2023-04-16T10:14:46;9.07;;;1.50;;
41643;SDS011;44236;48.098;11.582;2023-04-16T10:17:11;8.32;;;2.13;;
41643;SDS011;44236;48.098;11.582;2023-04-16T10:19:37;7.13;;;1.65;;
41643;SDS011;44236;48.098;11.582;2023-04-16T10:22:04;11.55;;;1.50;;
41643;SDS011;44236;48.098;11.582;2023-04-16T10:24:30;5.00;;;1.67;;
41643;SDS011;44236;48.098;11.582;2023-04-16T10:26:57;6.57;;;1.50;;
41643;SDS011;44236;48.098;11.582;2023-04-16T10:29:24;4.03;;;0.90;;
41643;SDS011;44236;48.098;11.582;2023-04-16T10:31:51;3.47;;;0.85;;
41643;SDS011;44236;48.098;11.582;2023-04-16T10:34:18;4.97;;;1.42;;
41643;SDS011;44236;48.098;11.582;2023-04-16T10:36:49;2.58;;;1.02;;
41643;SDS011;44236;48.098;11.582;2023-04-16T10:39:20;4.07;;;1.10;;
41643;SDS011;44236;48.098;11.582;2023-04-16T10:41:47;3.15;;;1.05;;
41643;SDS011;44236;48.098;11.582;2023-04-16T10:44:15;3.13;;;0.77;;
41643;SDS011;44236;48.098;11.582;2023-04-16T10:46:43;2.65;;;0.90;;
41643;SDS011;44236;48.098;11.582;2023-04-16T10:51:52;1.60;;;0.70;;
41643;SDS011;44236;48.098;11.582;2023-04-16T10:54:26;14.75;;;1.20;;
41643;SDS011;44236;48.098;11.582;2023-04-16T10:56:56;5.30;;;0.73;;
41643;SDS011;44236;48.098;11.582;2023-04-16T10:59:23;0.95;;;0.50;;
41643;SDS011;44236;48.098;11.582;2023-04-16T11:01:53;5.80;;;1.08;;
41643;SDS011;44236;48.098;11.582;2023-04-16T11:09:50;2.33;;;1.08;;
41643;SDS011;44236;48.098;11.582;2023-04-16T11:12:25;3.40;;;1.20;;
41643;SDS011;44236;48.098;11.582;2023-04-16T11:15:15;1.40;;;0.80;;
41643;SDS011;44236;48.098;11.582;2023-04-16T11:17:50;2.78;;;0.85;;
41643;SDS011;44236;48.098;11.582;2023-04-16T11:22:49;1.83;;;0.90;;
41643;SDS011;44236;48.098;11.582;2023-04-16T11:25:18;2.85;;;0.90;;
41643;SDS011;44236;48.098;11.582;2023-04-16T11:27:48;2.13;;;0.80;;
41643;SDS011;44236;48.098;11.582;2023-04-16T11:30:15;2.90;;;0.63;;
41643;SDS011;44236;48.098;11.582;2023-04-16T11:32:42;1.83;;;0.80;;
41643;SDS011;44236;48.098;11.582;2023-04-16T11:35:15;1.20;;;0.65;;
41643;SDS011;44236;48.098;11.582;2023-04-16T11:37:43;2.17;;;0.80;;
41643;SDS011;44236;48.098;11.582;2023-04-16T11:40:09;2.05;;;0.70;;
41643;SDS011;44236;48.098;11.582;2023-04-16T11:42:36;1.05;;;0.50;;
41643;SDS011;44236;48.098;11.582;2023-04-16T11:45:08;1.08;;;0.70;;
41643;SDS011;44236;48.098;11.582;2023-04-16T11:47:47;1.95;;;1.00;;
41643;SDS011;44236;48.098;11.582;2023-04-16T11:50:25;5.32;;;0.70;;
41643;SDS011;44236;48.098;11.582;2023-04-16T11:52:53;2.53;;;0.80;;
41643;SDS011;44236;48.098;11.582;2023-04-16T11:55:20;1.60;;;0.65;;
41643;SDS011;44236;48.098;11.582;2023-04-16T11:57:47;2.05;;;0.63;;
41643;SDS011;44236;48.098;11.582;2023-04-16T12:00:13;4.32;;;0.90;;
41643;SDS011;44236;48.098;11.582;2023-04-16T12:05:06;5.80;;;0.90;;
41643;SDS011;44236;48.098;11.582;2023-04-16T12:07:50;1.05;;;0.50;;
41643;SDS011;44236;48.098;11.582;2023-04-16T12:10:16;0.63;;;0.50;;
41643;SDS011;44236;48.098;11.582;2023-04-16T12:12:41;2.80;;;0.40;;
41643;SDS011;44236;48.098;11.582;2023-04-16T12:15:07;1.77;;;0.45;;
41643;SDS011;44236;48.098;11.582;2023-04-16T12:17:33;1.90;;;0.63;;
41643;SDS011;44236;48.098;11.582;2023-04-16T12:20:03;3.60;;;0.55;;
41643;SDS011;44236;48.098;11.582;2023-04-16T12:22:37;5.30;;;1.15;;
41643;SDS011;44236;48.098;11.582;2023-04-16T12:25:05;5.07;;;0.75;;
41643;SDS011;44236;48.098;11.582;2023-04-16T12:30:14;2.15;;;0.88;;
41643;SDS011;44236;48.098;11.582;2023-04-16T12:32:45;5.40;;;0.90;;
41643;SDS011;44236;48.098;11.582;2023-04-16T12:35:12;5.43;;;0.90;;
41643;SDS011;44236;48.098;11.582;2023-04-16T12:37:52;2.47;;;1.25;;
41643;SDS011;44236;48.098;11.582;2023-04-16T12:40:18;4.43;;;0.95;;
41643;SDS011;44236;48.098;11.582;2023-04-16T12:42:43;5.03;;;0.90;;
41643;SDS011;44236;48.098;11.582;2023-04-16T12:45:10;2.38;;;0.68;;
41643;SDS011;44236;48.098;11.582;2023-04-16T12:47:36;6.45;;;1.27;;
41643;SDS011;44236;48.098;11.582;2023-04-16T12:50:01;3.45;;;1.20;;
41643;SDS011;44236;48.098;11.582;2023-04-16T12:52:27;5.18;;;1.33;;
41643;SDS011;44236;48.098;11.582;2023-04-16T12:54:53;19.48;;;1.65;;
41643;SDS011;44236;48.098;11.582;2023-04-16T12:57:18;8.90;;;1.42;;
41643;SDS011;44236;48.098;11.582;2023-04-16T12:59:44;4.47;;;1.08;;
41643;SDS011;44236;48.098;11.582;2023-04-16T13:02:11;3.50;;;1.20;;
41643;SDS011;44236;48.098;11.582;2023-04-16T13:04:36;4.22;;;1.02;;
41643;SDS011;44236;48.098;11.582;2023-04-16T13:07:02;5.10;;;1.02;;
41643;SDS011;44236;48.098;11.582;2023-04-16T13:09:28;8.00;;;1.42;;
41643;SDS011;44236;48.098;11.582;2023-04-16T13:11:53;3.67;;;1.00;;
41643;SDS011;44236;48.098;11.582;2023-04-16T13:14:19;6.63;;;1.33;;
41643;SDS011;44236;48.098;11.582;2023-04-16T13:16:45;3.83;;;1.23;;
41643;SDS011;44236;48.098;11.582;2023-04-16T13:19:11;4.22;;;1.23;;
41643;SDS011;44236;48.098;11.582;2023-04-16T13:21:37;2.30;;;0.90;;
41643;SDS011;44236;48.098;11.582;2023-04-16T13:24:02;3.22;;;1.00;;
41643;SDS011;44236;48.098;11.582;2023-04-16T13:26:28;5.38;;;1.17;;
41643;SDS011;44236;48.098;11.582;2023-04-16T13:28:53;2.90;;;1.00;;
41643;SDS011;44236;48.098;11.582;2023-04-16T13:31:19;1.92;;;0.70;;
41643;SDS011;44236;48.098;11.582;2023-04-16T13:33:46;5.72;;;0.88;;
41643;SDS011;44236;48.098;11.582;2023-04-16T13:36:11;2.35;;;0.73;;
41643;SDS011;44236;48.098;11.582;2023-04-16T13:38:37;4.55;;;1.02;;
41643;SDS011;44236;48.098;11.582;2023-04-16T13:41:03;3.80;;;1.00;;
41643;SDS011;44236;48.098;11.582;2023-04-16T13:43:30;1.45;;;0.70;;
41643;SDS011;44236;48.098;11.582;2023-04-16T13:45:56;3.33;;;1.10;;
41643;SDS011;44236;48.098;11.582;2023-04-16T13:48:21;2.83;;;1.10;;
41643;SDS011;44236;48.098;11.582;2023-04-16T13:50:47;3.10;;;0.90;;
41643;SDS011;44236;48.098;11.582;2023-04-16T13:53:13;2.50;;;0.82;;
41643;SDS011;44236;48.098;11.582;2023-04-16T13:55:38;2.30;;;0.90;;
41643;SDS011;44236;48.098;11.582;2023-04-16T13:58:04;2.15;;;0.63;;
41643;SDS011;44236;48.098;11.582;2023-04-16T14:00:31;2.05;;;0.70;;
41643;SDS011;44236;48.098;11.582;2023-04-16T14:02:57;3.15;;;0.70;;
41643;SDS011;44236;48.098;11.582;2023-04-16T14:05:22;3.60;;;1.08;;
41643;SDS011;44236;48.098;11.582;2023-04-16T14:07:48;2.25;;;0.80;;
41643;SDS011;44236;48.098;11.582;2023-04-16T14:10:14;1.65;;;0.70;;
41643;SDS011;44236;48.098;11.582;2023-04-16T14:12:40;1.40;;;0.63;;
41643;SDS011;44236;48.098;11.582;2023-04-16T14:15:06;1.02;;;0.50;;
41643;SDS011;44236;48.098;11.582;2023-04-16T14:17:33;1.95;;;0.68;;
41643;SDS011;44236;48.098;11.582;2023-04-16T14:20:01;1.52;;;0.73;;
41643;SDS011;44236;48.098;11.582;2023-04-16T14:22:30;1.88;;;0.60;;
41643;SDS011;44236;48.098;11.582;2023-04-16T14:24:56;0.85;;;0.50;;
41643;SDS011;44236;48.098;11.582;2023-04-16T14:27:22;4.32;;;0.80;;
41643;SDS011;44236;48.098;11.582;2023-04-16T14:29:47;0.70;;;0.50;;
41643;SDS011;44236;48.098;11.582;2023-04-16T14:32:13;0.90;;;0.45;;
41643;SDS011;44236;48.098;11.582;2023-04-16T14:34:39;1.67;;;0.60;;
41643;SDS011;44236;48.098;11.582;2023-04-16T14:37:04;0.95;;;0.60;;
41643;SDS011;44236;48.098;11.582;2023-04-16T14:39:30;1.60;;;0.52;;
41643;SDS011;44236;48.098;11.582;2023-04-16T14:41:56;1.13;;;0.50;;
41643;SDS011;44236;48.098;11.582;2023-04-16T14:44:22;1.80;;;0.85;;
41643;SDS011;44236;48.098;11.582;2023-04-16T14:46:47;1.10;;;0.47;;
41643;SDS011;44236;48.098;11.582;2023-04-16T14:49:13;0.88;;;0.40;;
41643;SDS011;44236;48.098;11.582;2023-04-16T14:51:39;1.58;;;0.50;;